Time;durP1;ratioP1;P1;durP2;ratioP2;P2;SDS_P1;SDS_P2;PMS_P1;PMS_P2;Temp;Humidity;BMP_temperature;BMP_pressure;BME280_temperature;BME280_humidity;BME280_pressure;Samples;Min_cycle;Max_cycle;Signal;HPM_P1;HPM_P2
2022/07/03 00:02:01;;;;;;;0.88;0.88;;;;;;;;;;5078383;28;20197;-82
2022/07/03 00:04:29;;;;;;;0.60;0.60;;;;;;;;;;5077880;28;20685;-82
2022/07/03 00:06:56;;;;;;;0.80;0.80;;;;;;;;;;5078167;28;20221;-83
2022/07/03 00:09:25;;;;;;;1.30;0.60;;;;;;;;;;5078234;28;20220;-82
2022/07/03 00:11:53;;;;;;;0.82;0.82;;;;;;;;;;5078456;28;20247;-82
2022/07/03 00:14:20;;;;;;;0.65;0.65;;;;;;;;;;5078109;28;20205;-83
2022/07/03 00:16:48;;;;;;;0.70;0.70;;;;;;;;;;5078645;28;20569;-82
2022/07/03 00:19:16;;;;;;;0.60;0.60;;;;;;;;;;5078733;28;20228;-82
2022/07/03 00:21:49;;;;;;;0.47;0.47;;;;;;;;;;5078461;28;20279;-82
2022/07/03 00:24:25;;;;;;;0.60;0.60;;;;;;;;;;5078200;28;20221;-82
2022/07/03 00:26:54;;;;;;;0.50;0.50;;;;;;;;;;5077653;28;20264;-82
2022/07/03 00:29:24;;;;;;;0.82;0.82;;;;;;;;;;5078400;28;20223;-82
2022/07/03 00:31:52;;;;;;;0.60;0.60;;;;;;;;;;5078161;28;20232;-82
2022/07/03 00:34:20;;;;;;;0.60;0.60;;;;;;;;;;5077919;28;20232;-82
2022/07/03 00:36:49;;;;;;;0.75;0.75;;;;;;;;;;5077784;28;20207;-82
2022/07/03 00:39:17;;;;;;;0.60;0.60;;;;;;;;;;5078645;28;20345;-82
2022/07/03 00:41:47;;;;;;;0.80;0.80;;;;;;;;;;5077998;28;20259;-82
2022/07/03 00:44:14;;;;;;;0.75;0.75;;;;;;;;;;5078256;28;20201;-82
2022/07/03 00:46:43;;;;;;;0.88;0.88;;;;;;;;;;5077698;28;20613;-82
2022/07/03 00:49:12;;;;;;;0.75;0.75;;;;;;;;;;5077605;28;20713;-82
2022/07/03 00:51:41;;;;;;;0.80;0.80;;;;;;;;;;5078027;28;20597;-82
2022/07/03 00:54:11;;;;;;;0.80;0.80;;;;;;;;;;5078104;28;20197;-82
2022/07/03 00:56:41;;;;;;;0.93;0.93;;;;;;;;;;5078088;28;20616;-82
2022/07/03 00:59:10;;;;;;;1.00;1.00;;;;;;;;;;5077463;28;20204;-82
2022/07/03 01:01:39;;;;;;;1.00;1.00;;;;;;;;;;5077352;28;20252;-82
2022/07/03 01:04:19;;;;;;;1.10;1.10;;;;;;;;;;5077333;28;20570;-82
2022/07/03 01:06:54;;;;;;;0.98;0.98;;;;;;;;;;5077248;28;20173;-82
2022/07/03 01:09:35;;;;;;;1.92;1.35;;;;;;;;;;5077217;28;20212;-82
2022/07/03 01:12:08;;;;;;;1.00;1.00;;;;;;;;;;5077866;28;20192;-82
2022/07/03 01:14:48;;;;;;;1.13;1.13;;;;;;;;;;5077258;28;20185;-82
2022/07/03 01:17:25;;;;;;;1.15;1.15;;;;;;;;;;5076414;28;20270;-83
2022/07/03 01:20:01;;;;;;;1.40;1.30;;;;;;;;;;5077049;28;20251;-82
2022/07/03 01:22:33;;;;;;;1.20;1.20;;;;;;;;;;5077463;28;20203;-82
2022/07/03 01:25:25;;;;;;;1.52;1.40;;;;;;;;;;5077035;28;20219;-82
2022/07/03 01:28:05;;;;;;;1.10;1.00;;;;;;;;;;5052751;28;20197;-82
2022/07/03 01:30:35;;;;;;;1.00;1.00;;;;;;;;;;5077156;28;20307;-81
2022/07/03 01:33:06;;;;;;;1.00;1.00;;;;;;;;;;5077250;28;20236;-82
2022/07/03 01:35:36;;;;;;;0.90;0.90;;;;;;;;;;5077374;28;20181;-82
2022/07/03 01:38:08;;;;;;;1.02;1.02;;;;;;;;;;5077690;28;20606;-82
2022/07/03 01:40:38;;;;;;;0.80;0.80;;;;;;;;;;5080059;28;20225;-84
2022/07/03 01:43:10;;;;;;;0.88;0.88;;;;;;;;;;5082114;28;20265;-84
2022/07/03 01:45:43;;;;;;;0.70;0.70;;;;;;;;;;5082858;28;20272;-84
2022/07/03 01:48:12;;;;;;;1.10;1.00;;;;;;;;;;5084833;28;20200;-84
2022/07/03 01:50:41;;;;;;;0.90;0.90;;;;;;;;;;5083238;28;20228;-83
2022/07/03 01:53:11;;;;;;;0.70;0.70;;;;;;;;;;5083602;28;20200;-83
2022/07/03 01:55:41;;;;;;;0.88;0.88;;;;;;;;;;5084518;28;20268;-84
2022/07/03 01:58:10;;;;;;;1.00;1.00;;;;;;;;;;5084265;28;20218;-84
2022/07/03 02:00:49;;;;;;;0.60;0.60;;;;;;;;;;5085040;28;20589;-84
2022/07/03 02:03:27;;;;;;;0.90;0.90;;;;;;;;;;5083653;28;20192;-83
2022/07/03 02:06:05;;;;;;;0.80;0.80;;;;;;;;;;5084700;28;20224;-83
2022/07/03 02:08:44;;;;;;;0.88;0.88;;;;;;;;;;5085408;28;20192;-83
2022/07/03 02:11:16;;;;;;;0.80;0.80;;;;;;;;;;5084906;28;20224;-83
2022/07/03 02:13:53;;;;;;;0.65;0.65;;;;;;;;;;5083877;28;20208;-83
2022/07/03 02:16:24;;;;;;;0.88;0.88;;;;;;;;;;5085587;28;20183;-83
2022/07/03 02:18:59;;;;;;;0.75;0.75;;;;;;;;;;5084532;28;20194;-84
2022/07/03 02:21:29;;;;;;;0.60;0.60;;;;;;;;;;5085126;28;20221;-84
2022/07/03 02:24:11;;;;;;;0.98;0.98;;;;;;;;;;5082946;28;20197;-84
2022/07/03 02:26:41;;;;;;;0.80;0.80;;;;;;;;;;5084310;28;20189;-83
2022/07/03 02:29:16;;;;;;;1.23;1.15;;;;;;;;;;5083361;28;20570;-84
2022/07/03 02:31:46;;;;;;;3.80;1.13;;;;;;;;;;5086621;28;20224;-84
2022/07/03 02:34:17;;;;;;;0.90;0.90;;;;;;;;;;5087444;28;20219;-84
2022/07/03 02:36:48;;;;;;;1.20;1.15;;;;;;;;;;5087034;28;20607;-84
2022/07/03 02:39:22;;;;;;;1.33;1.23;;;;;;;;;;5087829;28;20197;-83
2022/07/03 02:41:58;;;;;;;1.35;1.25;;;;;;;;;;5086234;28;20205;-84
2022/07/03 02:44:29;;;;;;;1.10;1.10;;;;;;;;;;5087111;28;20576;-83
2022/07/03 02:47:04;;;;;;;1.20;1.20;;;;;;;;;;5086530;28;20601;-83
2022/07/03 02:49:51;;;;;;;1.02;1.00;;;;;;;;;;5086509;28;20209;-83
2022/07/03 02:52:44;;;;;;;1.65;1.55;;;;;;;;;;5086325;28;20235;-83
2022/07/03 02:55:35;;;;;;;1.33;1.23;;;;;;;;;;5087291;28;20229;-83
2022/07/03 02:58:25;;;;;;;1.48;1.38;;;;;;;;;;5086955;28;20177;-83
2022/07/03 03:00:59;;;;;;;1.27;1.23;;;;;;;;;;5087268;28;20240;-83
2022/07/03 03:03:30;;;;;;;1.30;1.20;;;;;;;;;;5086726;28;20200;-83
2022/07/03 03:06:04;;;;;;;1.27;1.17;;;;;;;;;;5086710;28;20230;-84
2022/07/03 03:08:38;;;;;;;1.20;1.20;;;;;;;;;;5086770;28;20685;-83
2022/07/03 03:11:09;;;;;;;1.40;1.30;;;;;;;;;;5086163;28;20253;-83
2022/07/03 03:13:37;;;;;;;1.60;1.50;;;;;;;;;;5086293;28;20204;-84
2022/07/03 03:16:10;;;;;;;1.50;1.40;;;;;;;;;;5087617;28;20205;-84
2022/07/03 03:18:41;;;;;;;1.10;1.10;;;;;;;;;;5087395;28;20188;-83
2022/07/03 03:21:12;;;;;;;1.77;1.67;;;;;;;;;;5087649;28;20213;-83
2022/07/03 03:23:48;;;;;;;1.45;1.35;;;;;;;;;;5087233;28;20205;-83
2022/07/03 03:26:18;;;;;;;1.30;1.20;;;;;;;;;;5087330;28;20197;-83
2022/07/03 03:28:46;;;;;;;1.30;1.20;;;;;;;;;;5086129;28;20228;-84
2022/07/03 03:31:15;;;;;;;1.40;1.30;;;;;;;;;;5086469;28;20271;-83
2022/07/03 03:33:44;;;;;;;1.08;1.00;;;;;;;;;;5086240;28;20197;-83
2022/07/03 03:36:14;;;;;;;1.10;1.10;;;;;;;;;;5085896;28;20193;-83
2022/07/03 03:38:42;;;;;;;1.02;1.02;;;;;;;;;;5087447;28;20288;-84
2022/07/03 03:41:10;;;;;;;1.13;1.13;;;;;;;;;;5087333;28;20247;-83
2022/07/03 03:43:38;;;;;;;1.20;1.10;;;;;;;;;;5085051;28;20197;-83
2022/07/03 03:46:06;;;;;;;1.17;1.10;;;;;;;;;;5067299;28;20209;-84
2022/07/03 03:48:35;;;;;;;1.42;1.10;;;;;;;;;;5066955;28;20280;-83
2022/07/03 03:51:05;;;;;;;0.90;0.90;;;;;;;;;;5066313;28;20229;-83
2022/07/03 03:53:32;;;;;;;1.02;1.02;;;;;;;;;;5066284;28;20201;-83
2022/07/03 03:56:01;;;;;;;0.93;0.93;;;;;;;;;;5068198;28;20201;-84
2022/07/03 03:58:33;;;;;;;0.95;0.95;;;;;;;;;;5066071;28;20194;-84
2022/07/03 04:01:02;;;;;;;1.30;1.30;;;;;;;;;;5066887;28;20213;-84
2022/07/03 04:03:31;;;;;;;1.17;1.17;;;;;;;;;;5066741;28;20201;-84
2022/07/03 04:06:00;;;;;;;0.90;0.90;;;;;;;;;;5066136;28;20280;-83
2022/07/03 04:08:28;;;;;;;1.10;1.10;;;;;;;;;;5066072;28;20206;-83
2022/07/03 04:10:56;;;;;;;1.20;1.20;;;;;;;;;;5066360;28;20229;-84
2022/07/03 04:13:24;;;;;;;1.40;1.30;;;;;;;;;;5064857;28;20198;-84
2022/07/03 04:15:54;;;;;;;1.10;1.00;;;;;;;;;;5086198;28;20205;-84
2022/07/03 04:18:22;;;;;;;3.80;1.48;;;;;;;;;;5086433;28;20201;-84
2022/07/03 04:20:50;;;;;;;0.93;0.93;;;;;;;;;;5086685;28;20221;-84
2022/07/03 04:23:19;;;;;;;1.00;1.00;;;;;;;;;;5085327;28;20197;-84
2022/07/03 04:25:46;;;;;;;1.23;1.15;;;;;;;;;;5084875;28;20262;-84
2022/07/03 04:28:14;;;;;;;1.00;1.00;;;;;;;;;;5084711;28;20665;-83
2022/07/03 04:30:42;;;;;;;1.33;1.25;;;;;;;;;;5086003;28;20220;-83
2022/07/03 04:33:09;;;;;;;0.80;0.80;;;;;;;;;;5085119;28;20205;-83
2022/07/03 04:35:38;;;;;;;1.20;1.10;;;;;;;;;;5085531;28;20561;-83
2022/07/03 04:38:05;;;;;;;1.10;1.10;;;;;;;;;;5084622;28;20204;-83
2022/07/03 04:40:34;;;;;;;1.40;1.30;;;;;;;;;;5084132;28;20232;-84
2022/07/03 04:43:02;;;;;;;1.38;1.27;;;;;;;;;;5084696;28;20197;-84
2022/07/03 04:45:29;;;;;;;1.30;1.20;;;;;;;;;;5084116;28;20565;-83
2022/07/03 04:47:57;;;;;;;1.20;1.20;;;;;;;;;;5082199;28;20200;-83
2022/07/03 04:50:25;;;;;;;1.23;1.23;;;;;;;;;;5083652;28;20243;-84
2022/07/03 04:52:52;;;;;;;1.58;1.48;;;;;;;;;;5082947;28;20197;-84
2022/07/03 04:55:20;;;;;;;1.70;1.20;;;;;;;;;;5083118;28;20205;-84
2022/07/03 04:57:49;;;;;;;1.30;1.20;;;;;;;;;;5083248;28;20200;-84
2022/07/03 05:00:17;;;;;;;1.20;1.20;;;;;;;;;;5083958;28;20263;-83
2022/07/03 05:02:44;;;;;;;1.15;1.08;;;;;;;;;;5084333;28;20561;-84
2022/07/03 05:05:12;;;;;;;1.27;1.20;;;;;;;;;;5084306;28;20232;-84
2022/07/03 05:07:39;;;;;;;1.45;1.35;;;;;;;;;;5083343;28;20205;-84
2022/07/03 05:10:08;;;;;;;1.40;1.30;;;;;;;;;;5083038;28;20221;-84
2022/07/03 05:12:36;;;;;;;1.70;1.60;;;;;;;;;;5081785;28;20266;-84
2022/07/03 05:15:06;;;;;;;1.63;1.52;;;;;;;;;;5083189;28;20201;-84
2022/07/03 05:17:35;;;;;;;1.65;1.55;;;;;;;;;;5082803;28;20181;-84
2022/07/03 05:22:48;;;;;;;1.48;1.38;;;;;;;;;;5081245;28;20205;-83
2022/07/03 05:25:16;;;;;;;2.65;1.70;;;;;;;;;;5082502;28;20209;-84
2022/07/03 05:27:43;;;;;;;1.35;1.25;;;;;;;;;;5080518;28;20235;-84
2022/07/03 05:30:13;;;;;;;1.25;1.00;;;;;;;;;;5081465;28;20212;-84
2022/07/03 05:32:41;;;;;;;1.20;1.10;;;;;;;;;;5081264;28;20220;-84
2022/07/03 05:35:10;;;;;;;1.13;1.10;;;;;;;;;;5081878;28;20235;-84
2022/07/03 05:37:37;;;;;;;1.25;1.20;;;;;;;;;;5082470;28;20193;-84
2022/07/03 05:40:07;;;;;;;2.55;2.15;;;;;;;;;;5082131;28;20693;-84
2022/07/03 05:42:35;;;;;;;1.00;0.98;;;;;;;;;;5080035;28;20207;-84
2022/07/03 05:45:03;;;;;;;2.55;1.42;;;;;;;;;;5079297;28;20252;-84
2022/07/03 05:47:32;;;;;;;2.58;2.40;;;;;;;;;;5079022;28;20227;-84
2022/07/03 05:50:00;;;;;;;2.45;1.40;;;;;;;;;;5078877;28;20286;-84
2022/07/03 05:52:27;;;;;;;1.08;1.00;;;;;;;;;;5080529;28;20564;-84
2022/07/03 05:54:55;;;;;;;1.30;1.30;;;;;;;;;;5080471;28;20223;-84
2022/07/03 05:57:23;;;;;;;1.17;1.17;;;;;;;;;;5079882;28;20212;-84
2022/07/03 05:59:50;;;;;;;1.27;1.20;;;;;;;;;;5080379;28;20227;-84
2022/07/03 06:02:18;;;;;;;1.17;1.17;;;;;;;;;;5080962;28;20193;-84
2022/07/03 06:04:47;;;;;;;1.25;1.15;;;;;;;;;;5083860;28;20246;-84
2022/07/03 06:07:16;;;;;;;1.95;0.88;;;;;;;;;;5084286;28;20630;-84
2022/07/03 06:09:44;;;;;;;0.98;0.98;;;;;;;;;;5083941;28;20248;-84
2022/07/03 06:12:12;;;;;;;1.30;1.30;;;;;;;;;;5082488;28;20217;-84
2022/07/03 06:14:40;;;;;;;1.42;1.30;;;;;;;;;;5071558;28;20197;-85
2022/07/03 06:17:07;;;;;;;2.45;1.20;;;;;;;;;;5062047;28;20198;-84
2022/07/03 06:19:35;;;;;;;1.38;1.27;;;;;;;;;;5061590;28;20260;-84
2022/07/03 06:22:04;;;;;;;1.10;1.10;;;;;;;;;;5060988;28;20265;-84
2022/07/03 06:24:32;;;;;;;1.20;1.10;;;;;;;;;;5059849;28;20229;-84
2022/07/03 06:26:59;;;;;;;1.33;1.33;;;;;;;;;;5061255;28;20259;-85
2022/07/03 06:29:27;;;;;;;0.93;0.93;;;;;;;;;;5059024;28;20275;-85
2022/07/03 06:31:54;;;;;;;0.90;0.90;;;;;;;;;;5058979;28;20257;-84
2022/07/03 06:34:22;;;;;;;1.05;1.05;;;;;;;;;;5059554;28;20653;-86
2022/07/03 06:36:50;;;;;;;1.50;1.35;;;;;;;;;;5059466;28;20232;-84
2022/07/03 06:39:18;;;;;;;0.93;0.93;;;;;;;;;;5060260;28;20655;-84
2022/07/03 06:41:46;;;;;;;1.83;1.73;;;;;;;;;;5059332;28;20313;-84
2022/07/03 06:44:14;;;;;;;1.23;1.23;;;;;;;;;;5068343;28;20681;-84
2022/07/03 06:46:41;;;;;;;1.10;0.93;;;;;;;;;;5080207;28;20240;-84
2022/07/03 06:49:09;;;;;;;1.00;1.00;;;;;;;;;;5080772;28;20216;-84
2022/07/03 06:51:36;;;;;;;1.20;1.20;;;;;;;;;;5078702;28;20271;-84
2022/07/03 06:54:04;;;;;;;0.98;0.98;;;;;;;;;;5079126;28;20193;-84
2022/07/03 06:56:33;;;;;;;1.20;0.93;;;;;;;;;;5079429;28;20250;-84
2022/07/03 06:59:01;;;;;;;1.17;1.08;;;;;;;;;;5079367;28;20221;-84
2022/07/03 07:01:28;;;;;;;0.90;0.90;;;;;;;;;;5079073;28;20225;-85
2022/07/03 07:03:56;;;;;;;1.35;1.35;;;;;;;;;;5079061;28;20234;-85
2022/07/03 07:06:24;;;;;;;0.90;0.90;;;;;;;;;;5080396;28;20666;-84
2022/07/03 07:08:51;;;;;;;1.10;1.10;;;;;;;;;;5079048;28;20627;-84
2022/07/03 07:11:19;;;;;;;1.00;1.00;;;;;;;;;;5078595;28;20217;-84
2022/07/03 07:13:48;;;;;;;1.33;1.23;;;;;;;;;;5077583;28;20267;-85
2022/07/03 07:16:16;;;;;;;1.30;1.20;;;;;;;;;;5078499;28;20197;-84
2022/07/03 07:18:44;;;;;;;0.90;0.90;;;;;;;;;;5078611;28;20240;-84
2022/07/03 07:21:12;;;;;;;1.23;1.08;;;;;;;;;;5078295;28;20302;-84
2022/07/03 07:23:39;;;;;;;0.90;0.90;;;;;;;;;;5078491;28;20288;-85
2022/07/03 07:26:07;;;;;;;1.10;1.10;;;;;;;;;;5078474;28;20205;-84
2022/07/03 07:28:35;;;;;;;2.15;0.85;;;;;;;;;;5077712;28;20322;-84
2022/07/03 07:31:04;;;;;;;1.38;0.93;;;;;;;;;;5077971;28;20284;-84
2022/07/03 07:33:32;;;;;;;1.20;1.10;;;;;;;;;;5077299;28;20260;-85
2022/07/03 07:35:59;;;;;;;1.48;1.10;;;;;;;;;;5077954;28;20201;-84
2022/07/03 07:38:27;;;;;;;1.10;1.10;;;;;;;;;;5078151;28;20212;-84
2022/07/03 07:40:54;;;;;;;3.00;1.20;;;;;;;;;;5111108;22;20228;-82
2022/07/03 07:43:22;;;;;;;0.90;0.90;;;;;;;;;;5116652;28;20211;-82
2022/07/03 07:45:49;;;;;;;1.10;1.10;;;;;;;;;;5103349;28;20196;-82
2022/07/03 07:48:18;;;;;;;1.45;1.35;;;;;;;;;;5099944;28;20224;-84
2022/07/03 07:50:46;;;;;;;0.90;0.90;;;;;;;;;;5083588;28;20205;-83
2022/07/03 07:53:13;;;;;;;1.23;1.13;;;;;;;;;;5080479;28;20252;-83
2022/07/03 07:55:41;;;;;;;1.25;1.02;;;;;;;;;;5084945;28;20216;-84
2022/07/03 07:58:09;;;;;;;2.97;0.90;;;;;;;;;;5087271;28;20255;-84
2022/07/03 08:05:35;;;;;;;1.30;1.27;;;;;;;;;;5085786;28;20236;-83
2022/07/03 08:06:11;;;;;;;1.20;1.20;;;;;;;;;;5082450;28;20680;-83
2022/07/03 08:08:39;;;;;;;0.98;0.98;;;;;;;;;;5085523;28;20231;-83
2022/07/03 08:11:06;;;;;;;1.10;1.10;;;;;;;;;;5084233;28;20201;-81
2022/07/03 08:13:34;;;;;;;1.02;1.02;;;;;;;;;;5080775;28;20248;-84
2022/07/03 08:16:01;;;;;;;0.90;0.90;;;;;;;;;;5083578;28;20240;-84
2022/07/03 08:18:30;;;;;;;1.00;1.00;;;;;;;;;;5084090;28;20224;-84
2022/07/03 08:20:58;;;;;;;0.90;0.90;;;;;;;;;;5083853;28;20608;-84
2022/07/03 08:23:25;;;;;;;0.88;0.82;;;;;;;;;;5081137;28;20221;-84
2022/07/03 08:25:53;;;;;;;1.48;1.10;;;;;;;;;;5082306;28;20225;-83
2022/07/03 08:28:20;;;;;;;1.10;1.10;;;;;;;;;;5082273;28;20279;-84
2022/07/03 08:30:48;;;;;;;1.20;1.10;;;;;;;;;;5081699;28;20232;-83
2022/07/03 08:33:16;;;;;;;1.02;1.02;;;;;;;;;;5081909;28;20574;-84
2022/07/03 08:35:44;;;;;;;0.90;0.90;;;;;;;;;;5082310;28;20235;-84
2022/07/03 08:38:12;;;;;;;1.20;1.10;;;;;;;;;;5080386;28;20264;-85
2022/07/03 08:40:41;;;;;;;0.80;0.80;;;;;;;;;;5081371;28;20695;-83
2022/07/03 08:43:08;;;;;;;0.80;0.80;;;;;;;;;;5080664;28;20210;-84
2022/07/03 08:45:36;;;;;;;1.00;1.00;;;;;;;;;;5081190;28;20236;-84
2022/07/03 08:48:07;;;;;;;0.80;0.80;;;;;;;;;;5080736;28;20256;-84
2022/07/03 08:50:35;;;;;;;0.80;0.80;;;;;;;;;;5079231;28;20216;-84
2022/07/03 08:53:04;;;;;;;1.10;1.10;;;;;;;;;;5079014;28;20267;-85
2022/07/03 08:55:32;;;;;;;1.13;0.90;;;;;;;;;;5079427;28;20296;-85
2022/07/03 08:58:00;;;;;;;1.00;1.00;;;;;;;;;;5079149;28;20721;-83
2022/07/03 09:00:28;;;;;;;1.30;1.20;;;;;;;;;;5078488;28;20245;-84
2022/07/03 09:02:56;;;;;;;1.58;0.90;;;;;;;;;;5076672;28;20232;-84
2022/07/03 09:05:24;;;;;;;1.17;1.10;;;;;;;;;;5078956;28;20562;-83
2022/07/03 09:07:54;;;;;;;1.55;1.30;;;;;;;;;;5079016;28;20203;-83
2022/07/03 09:10:22;;;;;;;0.90;0.90;;;;;;;;;;5079445;28;20201;-84
2022/07/03 09:12:50;;;;;;;0.80;0.80;;;;;;;;;;5078439;28;20260;-84
2022/07/03 09:15:18;;;;;;;1.20;1.20;;;;;;;;;;5079141;28;20247;-83
2022/07/03 09:17:59;;;;;;;1.00;1.00;;;;;;;;;;5078983;28;20250;-84
2022/07/03 09:20:33;;;;;;;1.48;1.10;;;;;;;;;;5078125;28;20269;-84
2022/07/03 09:23:16;;;;;;;0.82;0.82;;;;;;;;;;5077850;28;20203;-83
2022/07/03 09:25:57;;;;;;;0.93;0.93;;;;;;;;;;5078403;28;20205;-82
2022/07/03 09:28:26;;;;;;;0.68;0.68;;;;;;;;;;5077879;28;20255;-84
2022/07/03 09:31:01;;;;;;;0.60;0.60;;;;;;;;;;5076218;28;20232;-84
2022/07/03 09:33:29;;;;;;;0.98;0.98;;;;;;;;;;5076489;28;20231;-83
2022/07/03 09:35:58;;;;;;;0.80;0.80;;;;;;;;;;5075674;28;20272;-84
2022/07/03 09:38:26;;;;;;;0.80;0.80;;;;;;;;;;5056265;28;20732;-84
2022/07/03 09:40:57;;;;;;;0.80;0.80;;;;;;;;;;5056101;28;20304;-83
2022/07/03 09:43:26;;;;;;;0.73;0.73;;;;;;;;;;5055704;28;20233;-84
2022/07/03 09:45:56;;;;;;;0.90;0.90;;;;;;;;;;5075796;28;20217;-83
2022/07/03 09:48:31;;;;;;;0.77;0.77;;;;;;;;;;5075957;28;20599;-83
2022/07/03 09:51:29;;;;;;;1.00;1.00;;;;;;;;;;5075922;28;20204;-83
2022/07/03 09:53:59;;;;;;;0.98;0.98;;;;;;;;;;5076421;28;20244;-81
2022/07/03 09:56:34;;;;;;;1.00;1.00;;;;;;;;;;5077008;28;20288;-84
2022/07/03 09:59:12;;;;;;;1.45;1.00;;;;;;;;;;5076370;28;20274;-83
2022/07/03 10:01:41;;;;;;;1.40;1.30;;;;;;;;;;5075566;28;20222;-84
2022/07/03 10:04:16;;;;;;;0.68;0.68;;;;;;;;;;5075589;28;20209;-83
2022/07/03 10:06:55;;;;;;;0.70;0.70;;;;;;;;;;5075877;28;20680;-82
2022/07/03 10:09:25;;;;;;;0.80;0.80;;;;;;;;;;5075129;28;20308;-85
2022/07/03 10:11:55;;;;;;;0.80;0.80;;;;;;;;;;5073805;28;20236;-83
2022/07/03 10:14:24;;;;;;;1.00;1.00;;;;;;;;;;5074780;28;20680;-83
2022/07/03 10:16:53;;;;;;;1.20;1.10;;;;;;;;;;5072755;28;20233;-83
2022/07/03 10:19:22;;;;;;;1.95;1.00;;;;;;;;;;5072685;28;20315;-84
2022/07/03 10:21:54;;;;;;;0.80;0.80;;;;;;;;;;5072223;28;20201;-83
2022/07/03 10:24:24;;;;;;;0.82;0.80;;;;;;;;;;5071895;28;20599;-83
2022/07/03 10:26:54;;;;;;;0.68;0.68;;;;;;;;;;5073748;28;20208;-84
2022/07/03 10:29:23;;;;;;;0.80;0.80;;;;;;;;;;5072591;28;20259;-84
2022/07/03 10:31:51;;;;;;;0.50;0.50;;;;;;;;;;5071921;28;20777;-83
2022/07/03 10:34:21;;;;;;;0.75;0.70;;;;;;;;;;5072455;28;20263;-83
2022/07/03 10:36:52;;;;;;;0.90;0.90;;;;;;;;;;5072092;28;20197;-83
2022/07/03 10:39:37;;;;;;;1.10;1.00;;;;;;;;;;5071732;28;20249;-84
2022/07/03 10:44:56;;;;;;;0.77;0.77;;;;;;;;;;5072195;28;20200;-86
2022/07/03 10:47:39;;;;;;;1.02;1.02;;;;;;;;;;5070890;28;20228;-83
2022/07/03 10:50:11;;;;;;;0.70;0.70;;;;;;;;;;5074205;28;20200;-83
2022/07/03 10:52:39;;;;;;;0.70;0.70;;;;;;;;;;5074922;28;20193;-84
2022/07/03 10:55:07;;;;;;;1.00;0.90;;;;;;;;;;5075380;28;20259;-83
2022/07/03 10:57:37;;;;;;;0.70;0.70;;;;;;;;;;5076238;28;20310;-83
2022/07/03 11:00:22;;;;;;;1.00;1.00;;;;;;;;;;5076643;28;20236;-85
2022/07/03 11:02:52;;;;;;;1.10;1.10;;;;;;;;;;5077616;28;20232;-85
2022/07/03 11:05:27;;;;;;;0.80;0.80;;;;;;;;;;5076684;28;20615;-85
2022/07/03 11:08:14;;;;;;;0.82;0.82;;;;;;;;;;5076121;28;20200;-83
2022/07/03 11:10:43;;;;;;;0.98;0.82;;;;;;;;;;5076408;28;20201;-84
2022/07/03 11:13:20;;;;;;;0.63;0.63;;;;;;;;;;5075733;28;20606;-83
2022/07/03 11:15:53;;;;;;;0.95;0.88;;;;;;;;;;5056014;28;20329;-85
2022/07/03 11:18:30;;;;;;;1.00;0.90;;;;;;;;;;5055991;28;20244;-85
2022/07/03 11:21:22;;;;;;;3.25;1.50;;;;;;;;;;5055456;28;20219;-84
2022/07/03 11:24:28;;;;;;;0.90;0.90;;;;;;;;;;5054185;28;20208;-86
2022/07/03 11:27:26;;;;;;;1.10;1.10;;;;;;;;;;5056066;28;20295;-83
2022/07/03 11:30:00;;;;;;;0.70;0.70;;;;;;;;;;5055808;28;20720;-81
2022/07/03 11:32:59;;;;;;;0.63;0.63;;;;;;;;;;5055265;28;20208;-83
2022/07/03 11:35:54;;;;;;;0.77;0.77;;;;;;;;;;5057345;28;20260;-83
2022/07/03 11:38:30;;;;;;;0.73;0.73;;;;;;;;;;5056283;28;20221;-83
2022/07/03 11:41:00;;;;;;;0.88;0.88;;;;;;;;;;5056993;28;20240;-83
2022/07/03 11:43:29;;;;;;;0.93;0.93;;;;;;;;;;5057103;28;20205;-81
2022/07/03 11:45:58;;;;;;;0.70;0.70;;;;;;;;;;5075606;28;20236;-82
2022/07/03 11:48:27;;;;;;;1.13;1.02;;;;;;;;;;5075111;28;20252;-83
2022/07/03 11:51:01;;;;;;;0.90;0.90;;;;;;;;;;5075178;28;20197;-83
2022/07/03 11:53:31;;;;;;;0.90;0.90;;;;;;;;;;5074655;28;20203;-83
2022/07/03 11:56:01;;;;;;;0.85;0.85;;;;;;;;;;5075415;28;20251;-83
2022/07/03 11:58:43;;;;;;;0.73;0.73;;;;;;;;;;5074622;28;20244;-83
2022/07/03 12:01:28;;;;;;;0.80;0.80;;;;;;;;;;5073994;28;20240;-84
2022/07/03 12:04:03;;;;;;;0.60;0.60;;;;;;;;;;5077203;28;20236;-83
2022/07/03 12:06:36;;;;;;;0.80;0.80;;;;;;;;;;5079467;28;20200;-84
2022/07/03 12:09:04;;;;;;;0.63;0.63;;;;;;;;;;5083044;28;20220;-84
2022/07/03 12:11:32;;;;;;;0.60;0.60;;;;;;;;;;5078488;28;20228;-82
2022/07/03 12:13:59;;;;;;;0.95;0.95;;;;;;;;;;5077108;28;20240;-85
2022/07/03 12:16:35;;;;;;;0.73;0.73;;;;;;;;;;5077060;28;20225;-84
2022/07/03 12:19:07;;;;;;;1.02;0.90;;;;;;;;;;5077954;28;20228;-84
2022/07/03 12:21:40;;;;;;;1.25;1.15;;;;;;;;;;5075728;28;20231;-84
2022/07/03 12:24:13;;;;;;;0.75;0.75;;;;;;;;;;5078414;28;20209;-83
2022/07/03 12:26:41;;;;;;;0.88;0.88;;;;;;;;;;5076868;28;20205;-83
2022/07/03 12:29:11;;;;;;;0.80;0.80;;;;;;;;;;5077703;28;20253;-83
2022/07/03 12:31:42;;;;;;;0.88;0.88;;;;;;;;;;5075473;28;20362;-83
2022/07/03 12:34:12;;;;;;;0.90;0.90;;;;;;;;;;5085311;28;20208;-84
2022/07/03 12:36:39;;;;;;;0.95;0.95;;;;;;;;;;5097240;28;20208;-82
2022/07/03 12:39:08;;;;;;;0.80;0.80;;;;;;;;;;5097002;28;20229;-81
2022/07/03 12:41:35;;;;;;;0.95;0.80;;;;;;;;;;5091234;28;20212;-81
2022/07/03 12:44:03;;;;;;;0.73;0.73;;;;;;;;;;5085957;28;20201;-84
2022/07/03 12:46:36;;;;;;;0.60;0.60;;;;;;;;;;5085432;28;20201;-82
2022/07/03 12:49:12;;;;;;;0.80;0.80;;;;;;;;;;5085027;28;20220;-83
2022/07/03 12:51:45;;;;;;;0.85;0.85;;;;;;;;;;5085051;28;20208;-84
2022/07/03 12:54:15;;;;;;;0.80;0.80;;;;;;;;;;5083768;28;20255;-83
2022/07/03 12:56:43;;;;;;;0.60;0.60;;;;;;;;;;5084812;28;20244;-84
2022/07/03 12:59:25;;;;;;;0.65;0.65;;;;;;;;;;5084352;28;20228;-83
2022/07/03 13:02:04;;;;;;;0.75;0.75;;;;;;;;;;5081175;28;20303;-82
2022/07/03 13:04:35;;;;;;;1.52;1.05;;;;;;;;;;5082801;28;20239;-83
2022/07/03 13:07:05;;;;;;;0.60;0.60;;;;;;;;;;5083296;28;20631;-83
2022/07/03 13:09:33;;;;;;;0.60;0.60;;;;;;;;;;5083769;28;20217;-83
2022/07/03 13:12:00;;;;;;;0.80;0.80;;;;;;;;;;5079511;28;20200;-84
2022/07/03 13:14:28;;;;;;;0.80;0.80;;;;;;;;;;5080499;28;20223;-82
2022/07/03 13:16:57;;;;;;;0.90;0.90;;;;;;;;;;5081809;28;20248;-82
2022/07/03 13:19:26;;;;;;;0.68;0.68;;;;;;;;;;5081721;28;20602;-83
2022/07/03 13:21:57;;;;;;;1.23;1.02;;;;;;;;;;5080592;28;20201;-83
2022/07/03 13:24:25;;;;;;;1.48;1.38;;;;;;;;;;5081387;28;20193;-83
2022/07/03 13:26:54;;;;;;;0.70;0.70;;;;;;;;;;5081261;28;20240;-83
2022/07/03 13:29:23;;;;;;;1.67;0.90;;;;;;;;;;5080804;28;20231;-83
2022/07/03 13:31:51;;;;;;;0.60;0.60;;;;;;;;;;5080843;28;20255;-83
2022/07/03 13:34:19;;;;;;;0.80;0.80;;;;;;;;;;5080361;28;20204;-83
2022/07/03 13:36:48;;;;;;;0.85;0.85;;;;;;;;;;5081042;28;20249;-83
2022/07/03 13:39:17;;;;;;;0.98;0.90;;;;;;;;;;5080022;28;20227;-82
2022/07/03 13:41:45;;;;;;;0.75;0.75;;;;;;;;;;5079018;28;20247;-83
2022/07/03 13:44:12;;;;;;;0.75;0.75;;;;;;;;;;5078792;28;20240;-82
2022/07/03 13:46:40;;;;;;;0.75;0.75;;;;;;;;;;5079822;28;20203;-83
2022/07/03 13:49:07;;;;;;;0.73;0.73;;;;;;;;;;5078878;28;20248;-83
2022/07/03 13:51:35;;;;;;;0.80;0.80;;;;;;;;;;5077827;28;20232;-82
2022/07/03 13:54:03;;;;;;;0.70;0.70;;;;;;;;;;5078312;28;20265;-83
2022/07/03 13:56:31;;;;;;;0.70;0.70;;;;;;;;;;5098945;22;20264;-80
2022/07/03 13:58:59;;;;;;;0.70;0.70;;;;;;;;;;5077373;28;20232;-80
2022/07/03 14:01:26;;;;;;;3.38;1.13;;;;;;;;;;5074819;28;20279;-81
2022/07/03 14:03:54;;;;;;;0.55;0.55;;;;;;;;;;5074086;28;20220;-81
2022/07/03 14:06:22;;;;;;;1.70;0.93;;;;;;;;;;5076057;28;20208;-81
2022/07/03 14:08:50;;;;;;;0.90;0.90;;;;;;;;;;5076541;28;20296;-81
2022/07/03 14:11:17;;;;;;;0.77;0.77;;;;;;;;;;5076412;28;20227;-81
2022/07/03 14:13:46;;;;;;;0.77;0.77;;;;;;;;;;5076241;28;20232;-82
2022/07/03 14:16:14;;;;;;;0.68;0.68;;;;;;;;;;5075793;28;20244;-82
2022/07/03 14:18:41;;;;;;;0.60;0.60;;;;;;;;;;5075310;28;20232;-82
2022/07/03 14:21:09;;;;;;;0.85;0.73;;;;;;;;;;5075515;28;20694;-82
2022/07/03 14:23:36;;;;;;;0.90;0.90;;;;;;;;;;5076560;28;20638;-81
2022/07/03 14:26:04;;;;;;;0.60;0.60;;;;;;;;;;5080273;28;20235;-82
2022/07/03 14:34:04;;;;;;;0.60;0.60;;;;;;;;;;5080442;28;20319;-82
2022/07/03 14:36:32;;;;;;;0.70;0.70;;;;;;;;;;5081352;28;20550;-83
2022/07/03 14:38:59;;;;;;;0.60;0.60;;;;;;;;;;5080840;28;20201;-80
2022/07/03 14:41:27;;;;;;;0.65;0.65;;;;;;;;;;5081164;28;20253;-81
2022/07/03 14:43:54;;;;;;;0.80;0.80;;;;;;;;;;5081076;28;20236;-82
2022/07/03 14:46:23;;;;;;;0.70;0.70;;;;;;;;;;5081281;28;20233;-80
2022/07/03 14:48:51;;;;;;;0.60;0.60;;;;;;;;;;5081157;28;20625;-83
2022/07/03 14:51:21;;;;;;;0.70;0.70;;;;;;;;;;5080431;28;20256;-83
2022/07/03 14:53:48;;;;;;;0.80;0.80;;;;;;;;;;5080901;28;20201;-83
2022/07/03 14:56:20;;;;;;;0.80;0.77;;;;;;;;;;5079536;28;20252;-82
2022/07/03 14:58:48;;;;;;;0.90;0.90;;;;;;;;;;5080313;28;20212;-81
2022/07/03 15:01:18;;;;;;;0.70;0.70;;;;;;;;;;5079918;28;20217;-82
2022/07/03 15:04:00;;;;;;;0.93;0.93;;;;;;;;;;5079242;28;20201;-83
2022/07/03 15:06:28;;;;;;;0.70;0.70;;;;;;;;;;5080223;28;20197;-80
2022/07/03 15:09:01;;;;;;;0.80;0.80;;;;;;;;;;5080675;28;20201;-81
2022/07/03 15:14:25;;;;;;;1.13;0.88;;;;;;;;;;5079658;28;20224;-81
2022/07/03 15:16:53;;;;;;;0.85;0.85;;;;;;;;;;5079743;28;20217;-80
2022/07/03 15:19:22;;;;;;;0.80;0.80;;;;;;;;;;5079846;28;20231;-82
2022/07/03 15:21:50;;;;;;;0.82;0.82;;;;;;;;;;5078886;28;20216;-80